createdAt,value
2023-09-16T00:00:38.213Z,7.60
2023-09-16T00:03:06.171Z,7.42
2023-09-16T00:05:40.015Z,7.49
2023-09-16T00:08:08.036Z,7.72
2023-09-16T00:10:35.787Z,7.55
2023-09-16T00:13:05.081Z,7.46
2023-09-16T00:15:32.885Z,7.28
2023-09-16T00:18:01.336Z,7.61
2023-09-16T00:20:29.748Z,7.44
2023-09-16T00:22:58.295Z,7.80
2023-09-16T00:25:26.097Z,7.98
2023-09-16T00:27:53.976Z,8.06
2023-09-16T00:30:23.413Z,7.89
2023-09-16T00:32:51.185Z,7.87
2023-09-16T00:35:19.893Z,8.03
2023-09-16T00:37:48.204Z,7.93
2023-09-16T00:40:15.970Z,7.93
2023-09-16T00:42:46.489Z,7.85
2023-09-16T00:45:15.443Z,8.17
2023-09-16T00:47:44.653Z,7.82
2023-09-16T00:50:15.060Z,8.02
2023-09-16T00:52:46.367Z,7.73
2023-09-16T00:55:14.409Z,8.21
2023-09-16T00:57:45.391Z,8.08
2023-09-16T01:00:13.514Z,8.24
2023-09-16T01:02:41.357Z,8.62
2023-09-16T01:05:16.465Z,8.07
2023-09-16T01:07:47.154Z,8.31
2023-09-16T01:10:17.005Z,7.81
2023-09-16T01:12:45.065Z,7.88
2023-09-16T01:15:15.325Z,8.14
2023-09-16T01:17:49.867Z,7.80
2023-09-16T01:20:20.771Z,7.82
2023-09-16T01:22:49.623Z,8.03
2023-09-16T01:25:18.857Z,8.10
2023-09-16T01:27:46.789Z,8.43
2023-09-16T01:30:15.348Z,8.26
2023-09-16T01:32:47.659Z,8.41
2023-09-16T01:35:21.708Z,9.27
2023-09-16T01:37:52.111Z,8.38
2023-09-16T01:40:25.798Z,8.32
2023-09-16T01:42:59.442Z,8.70
2023-09-16T01:45:48.288Z,8.45
2023-09-16T01:48:29.804Z,8.44
2023-09-16T01:51:14.491Z,8.71
2023-09-16T01:53:44.905Z,8.41
2023-09-16T01:56:16.520Z,8.50
2023-09-16T01:58:44.227Z,8.72
2023-09-16T02:01:12.710Z,8.79
2023-09-16T02:03:40.448Z,9.08
2023-09-16T02:06:08.533Z,8.85
2023-09-16T02:08:41.657Z,8.85
2023-09-16T02:11:09.412Z,8.60
2023-09-16T02:13:38.536Z,8.80
2023-09-16T02:16:07.247Z,9.07
2023-09-16T02:18:36.661Z,9.12
2023-09-16T02:21:08.748Z,9.20
2023-09-16T02:23:36.492Z,8.56
2023-09-16T02:26:09.859Z,8.59
2023-09-16T02:28:43.018Z,8.82
2023-09-16T02:31:11.591Z,8.60
2023-09-16T02:33:39.444Z,9.13
2023-09-16T02:36:07.461Z,9.05
2023-09-16T02:38:40.596Z,8.66
2023-09-16T02:41:08.375Z,8.61
2023-09-16T02:43:36.085Z,8.62
2023-09-16T02:46:05.276Z,8.65
2023-09-16T02:48:39.329Z,8.79
2023-09-16T02:51:10.929Z,8.67
2023-09-16T02:53:38.796Z,8.64
2023-09-16T02:56:08.941Z,8.69
2023-09-16T02:58:36.660Z,8.75
2023-09-16T03:01:11.802Z,9.09
2023-09-16T03:03:40.067Z,8.71
2023-09-16T03:06:09.900Z,8.62
2023-09-16T03:08:37.844Z,8.65
2023-09-16T03:11:06.814Z,8.85
2023-09-16T03:13:40.536Z,8.66
2023-09-16T03:16:20.234Z,8.71
2023-09-16T03:18:54.997Z,8.63
2023-09-16T03:21:26.760Z,8.25
2023-09-16T03:23:54.629Z,8.28
2023-09-16T03:26:22.780Z,8.22
2023-09-16T03:28:50.780Z,8.42
2023-09-16T03:31:20.142Z,7.77
2023-09-16T03:33:49.834Z,8.07
2023-09-16T03:36:17.607Z,8.21
2023-09-16T03:38:49.521Z,8.43
2023-09-16T03:41:17.934Z,8.55
2023-09-16T03:43:48.579Z,8.30
2023-09-16T03:46:17.906Z,8.24
2023-09-16T03:48:47.443Z,8.00
2023-09-16T03:51:15.750Z,7.92
2023-09-16T03:53:43.748Z,8.19
2023-09-16T03:56:13.909Z,8.48
2023-09-16T03:58:41.682Z,8.28
2023-09-16T04:01:10.086Z,8.41
2023-09-16T04:03:37.981Z,8.35
2023-09-16T04:06:07.862Z,8.41
2023-09-16T04:08:42.556Z,8.67
2023-09-16T04:11:11.311Z,8.99
2023-09-16T04:13:39.145Z,8.40
2023-09-16T04:16:07.128Z,8.09
2023-09-16T04:18:35.449Z,8.38
2023-09-16T04:21:08.338Z,8.56
2023-09-16T04:23:37.096Z,8.15
2023-09-16T04:26:04.963Z,7.24
2023-09-16T04:28:32.742Z,7.32
2023-09-16T04:31:05.639Z,7.30
2023-09-16T04:33:33.606Z,7.39
2023-09-16T04:36:01.938Z,7.52
2023-09-16T04:38:31.606Z,7.27
2023-09-16T04:41:01.298Z,7.22
2023-09-16T04:43:29.024Z,7.45
2023-09-16T04:46:03.776Z,7.43
2023-09-16T04:48:32.176Z,7.78
2023-09-16T04:51:00.072Z,7.74
2023-09-16T04:53:27.836Z,7.46
2023-09-16T04:56:02.159Z,7.47
2023-09-16T04:58:29.962Z,7.44
2023-09-16T05:01:00.637Z,7.40
2023-09-16T05:03:28.550Z,7.39
2023-09-16T05:05:56.488Z,7.50
2023-09-16T05:08:24.280Z,7.07
2023-09-16T05:10:54.545Z,7.39
2023-09-16T05:13:24.193Z,7.13
2023-09-16T05:15:52.232Z,7.03
2023-09-16T05:18:20.075Z,7.08
2023-09-16T05:20:47.817Z,7.06
2023-09-16T05:23:15.616Z,7.10
2023-09-16T05:25:46.665Z,7.10
2023-09-16T05:28:14.850Z,7.00
2023-09-16T05:30:44.671Z,7.40
2023-09-16T05:33:12.763Z,6.77
2023-09-16T05:35:41.588Z,6.64
2023-09-16T05:38:11.659Z,6.79
2023-09-16T05:40:39.457Z,7.05
2023-09-16T05:43:07.216Z,6.81
2023-09-16T05:45:34.962Z,6.99
2023-09-16T05:48:11.361Z,7.15
2023-09-16T05:50:39.170Z,6.93
2023-09-16T05:53:15.762Z,7.14
2023-09-16T05:55:45.908Z,7.02
2023-09-16T05:58:13.632Z,7.43
2023-09-16T06:00:41.548Z,7.19
2023-09-16T06:03:11.225Z,7.63
2023-09-16T06:05:38.994Z,7.29
2023-09-16T06:08:07.284Z,7.43
2023-09-16T06:10:35.086Z,7.39
2023-09-16T06:13:02.880Z,7.44
2023-09-16T06:15:30.692Z,7.33
2023-09-16T06:17:58.429Z,7.31
2023-09-16T06:20:27.836Z,7.64
2023-09-16T06:22:58.215Z,7.60
2023-09-16T06:25:26.450Z,7.52
2023-09-16T06:27:54.280Z,7.22
2023-09-16T06:30:22.049Z,7.26
2023-09-16T06:32:49.842Z,7.21
2023-09-16T06:35:20.017Z,7.52
2023-09-16T06:37:50.936Z,7.61
2023-09-16T06:40:19.058Z,7.26
2023-09-16T06:42:46.959Z,7.15
2023-09-16T06:45:15.378Z,7.31
2023-09-16T06:47:43.214Z,7.63
2023-09-16T06:50:11.187Z,7.32
2023-09-16T06:52:39.168Z,7.53
2023-09-16T06:55:08.549Z,7.55
2023-09-16T06:57:36.344Z,8.35
2023-09-16T07:00:04.102Z,8.53
2023-09-16T07:02:31.904Z,8.25
2023-09-16T07:04:59.733Z,9.05
2023-09-16T07:07:28.957Z,9.56
2023-09-16T07:09:57.064Z,9.09
2023-09-16T07:12:26.769Z,9.54
2023-09-16T07:14:54.553Z,8.92
2023-09-16T07:17:22.307Z,8.51
2023-09-16T07:19:50.029Z,8.48
2023-09-16T07:22:19.454Z,8.87
2023-09-16T07:24:47.233Z,8.96
2023-09-16T07:27:17.189Z,8.97
2023-09-16T07:29:46.336Z,9.05
2023-09-16T07:32:16.450Z,9.00
2023-09-16T07:34:44.202Z,8.33
2023-09-16T07:37:11.979Z,8.92
2023-09-16T07:39:39.712Z,8.75
2023-09-16T07:42:10.038Z,9.02
2023-09-16T07:44:40.236Z,8.94
2023-09-16T07:47:09.348Z,9.03
2023-09-16T07:49:44.977Z,9.01
2023-09-16T07:52:12.850Z,9.34
2023-09-16T07:54:40.664Z,9.70
2023-09-16T07:57:08.451Z,9.59
2023-09-16T07:59:38.177Z,9.47
2023-09-16T08:02:06.225Z,9.88
2023-09-16T08:04:40.290Z,9.69
2023-09-16T08:07:11.218Z,9.39
2023-09-16T08:09:39.053Z,9.34
2023-09-16T08:12:10.308Z,9.63
2023-09-16T08:14:38.046Z,9.63
2023-09-16T08:17:05.933Z,9.46
2023-09-16T08:19:35.028Z,9.40
2023-09-16T08:22:02.880Z,9.48
2023-09-16T08:24:31.244Z,9.31
2023-09-16T08:26:58.978Z,9.45
2023-09-16T08:29:26.994Z,9.30
2023-09-16T08:31:57.550Z,8.47
2023-09-16T08:34:28.677Z,8.84
2023-09-16T08:36:57.805Z,9.14
2023-09-16T08:39:25.529Z,9.10
2023-09-16T08:42:01.619Z,9.22
2023-09-16T08:44:30.554Z,9.23
2023-09-16T08:47:01.633Z,9.15
2023-09-16T08:49:30.642Z,8.71
2023-09-16T08:52:01.785Z,8.78
2023-09-16T08:54:31.373Z,8.49
2023-09-16T08:57:01.940Z,8.52
2023-09-16T08:59:32.646Z,8.78
2023-09-16T09:02:00.417Z,8.47
2023-09-16T09:04:29.533Z,8.07
2023-09-16T09:07:01.778Z,8.23
2023-09-16T09:09:31.825Z,7.76
2023-09-16T09:12:00.394Z,7.44
2023-09-16T09:14:32.878Z,7.55
2023-09-16T09:17:04.206Z,7.19
2023-09-16T09:19:32.705Z,7.54
2023-09-16T09:22:03.806Z,7.99
2023-09-16T09:24:33.001Z,7.55
2023-09-16T09:27:00.713Z,7.50
2023-09-16T09:29:34.226Z,7.38
2023-09-16T09:32:02.224Z,7.31
2023-09-16T09:34:30.599Z,7.08
2023-09-16T09:36:58.318Z,7.24
2023-09-16T09:39:29.074Z,7.05
2023-09-16T09:42:06.738Z,7.01
2023-09-16T09:44:35.635Z,7.22
2023-09-16T09:47:03.531Z,7.36
2023-09-16T09:49:31.401Z,7.43
2023-09-16T09:52:03.501Z,7.02
2023-09-16T09:54:31.866Z,6.93
2023-09-16T09:57:07.238Z,7.09
2023-09-16T09:59:35.271Z,6.81
2023-09-16T10:02:06.021Z,6.74
2023-09-16T10:04:34.105Z,7.01
2023-09-16T10:07:02.141Z,6.44
2023-09-16T10:09:29.932Z,6.75
2023-09-16T10:11:58.039Z,6.98
2023-09-16T10:14:27.452Z,7.10
2023-09-16T10:16:55.452Z,6.76
2023-09-16T10:19:23.685Z,7.16
2023-09-16T10:21:53.879Z,6.80
2023-09-16T10:24:22.262Z,6.70
2023-09-16T10:26:56.767Z,6.57
2023-09-16T10:29:32.484Z,6.94
2023-09-16T10:32:00.665Z,7.04
2023-09-16T10:34:28.887Z,6.66
2023-09-16T10:36:56.720Z,6.66
2023-09-16T10:39:24.901Z,6.60
2023-09-16T10:41:57.066Z,6.47
2023-09-16T10:44:27.458Z,6.47
2023-09-16T10:46:59.664Z,6.62
2023-09-16T10:49:27.517Z,6.58
2023-09-16T10:52:04.309Z,6.89
2023-09-16T10:54:45.468Z,6.50
2023-09-16T10:57:18.940Z,6.60
2023-09-16T10:59:49.574Z,6.48
2023-09-16T11:02:26.244Z,6.60
2023-09-16T11:04:54.369Z,6.06
2023-09-16T11:07:22.823Z,6.75
2023-09-16T11:09:57.469Z,6.45
2023-09-16T11:12:25.971Z,6.36
2023-09-16T11:14:53.782Z,6.15
2023-09-16T11:17:23.508Z,6.47
2023-09-16T11:20:11.798Z,6.21
2023-09-16T11:22:48.291Z,6.60
2023-09-16T11:25:24.031Z,6.28
2023-09-16T11:27:54.661Z,6.09
2023-09-16T11:30:23.566Z,6.26
2023-09-16T11:33:06.198Z,6.40
2023-09-16T11:35:38.116Z,6.15
2023-09-16T11:38:05.903Z,5.92
2023-09-16T11:40:36.778Z,6.49
2023-09-16T11:43:08.695Z,6.33
2023-09-16T11:45:37.256Z,6.52
2023-09-16T11:48:05.047Z,6.35
2023-09-16T11:50:36.998Z,6.34
2023-09-16T11:53:07.067Z,6.17
2023-09-16T11:55:37.423Z,6.47
2023-09-16T11:58:06.732Z,6.39
2023-09-16T12:00:34.545Z,6.22
2023-09-16T12:03:03.487Z,6.09
2023-09-16T12:05:36.008Z,5.99
2023-09-16T12:08:06.073Z,6.12
2023-09-16T12:10:38.055Z,6.25
2023-09-16T12:13:05.914Z,6.47
2023-09-16T12:15:33.761Z,6.25
2023-09-16T12:18:02.211Z,5.92
2023-09-16T12:20:37.853Z,5.64
2023-09-16T12:23:07.316Z,5.77
2023-09-16T12:25:40.864Z,5.73
2023-09-16T12:28:08.898Z,5.61
2023-09-16T12:30:43.269Z,5.56
2023-09-16T12:33:11.012Z,5.40
2023-09-16T12:35:39.504Z,5.98
2023-09-16T12:38:09.129Z,5.41
2023-09-16T12:40:37.840Z,5.42
2023-09-16T12:43:08.560Z,5.76
2023-09-16T12:45:37.845Z,5.86
2023-09-16T12:48:07.593Z,5.96
2023-09-16T12:50:41.747Z,5.71
2023-09-16T12:53:16.875Z,6.05
2023-09-16T12:55:44.650Z,5.82
2023-09-16T12:58:12.467Z,6.00
2023-09-16T13:00:41.474Z,6.36
2023-09-16T13:03:10.138Z,6.25
2023-09-16T13:05:39.788Z,6.00
2023-09-16T13:08:17.969Z,5.90
2023-09-16T13:10:50.705Z,5.91
2023-09-16T13:13:19.133Z,5.94
2023-09-16T13:15:48.740Z,6.15
2023-09-16T13:18:21.213Z,5.84
2023-09-16T13:20:56.731Z,6.03
2023-09-16T13:23:27.301Z,6.10
2023-09-16T13:26:15.469Z,5.75
2023-09-16T13:29:01.217Z,5.77
2023-09-16T13:31:29.951Z,5.66
2023-09-16T13:34:01.790Z,5.56
2023-09-16T13:36:32.177Z,5.60
2023-09-16T13:39:00.097Z,5.46
2023-09-16T13:41:31.815Z,5.38
2023-09-16T13:44:00.070Z,5.47
2023-09-16T13:46:28.028Z,5.36
2023-09-16T13:48:56.593Z,5.58
2023-09-16T13:51:24.587Z,5.63
2023-09-16T13:53:52.721Z,5.63
2023-09-16T13:56:25.886Z,5.18
2023-09-16T13:58:55.046Z,5.37
2023-09-16T14:01:22.942Z,5.73
2023-09-16T14:03:54.185Z,5.53
2023-09-16T14:06:22.141Z,5.46
2023-09-16T14:08:51.735Z,5.10
2023-09-16T14:11:20.870Z,5.14
2023-09-16T14:13:48.783Z,4.84
2023-09-16T14:16:24.288Z,4.67
2023-09-16T14:18:52.123Z,4.56
2023-09-16T14:21:19.921Z,5.00
2023-09-16T14:23:47.626Z,5.14
2023-09-16T14:26:15.369Z,5.89
2023-09-16T14:28:43.122Z,5.45
2023-09-16T14:31:10.949Z,5.21
2023-09-16T14:33:40.091Z,5.23
2023-09-16T14:36:07.809Z,5.18
2023-09-16T14:38:35.610Z,4.99
2023-09-16T14:41:07.549Z,5.25
2023-09-16T14:43:35.385Z,5.22
2023-09-16T14:46:03.479Z,5.30
2023-09-16T14:48:31.332Z,5.06
2023-09-16T14:51:00.435Z,4.94
2023-09-16T14:53:28.113Z,5.11
2023-09-16T14:55:56.004Z,4.78
2023-09-16T14:58:23.805Z,5.14
2023-09-16T15:00:51.542Z,5.06
2023-09-16T15:03:19.263Z,5.00
2023-09-16T15:05:47.094Z,4.93
2023-09-16T15:08:18.299Z,5.01
2023-09-16T15:10:46.958Z,4.90
2023-09-16T15:13:14.905Z,5.13
2023-09-16T15:15:42.746Z,4.94
2023-09-16T15:18:10.518Z,5.12
2023-09-16T15:20:38.218Z,4.74
2023-09-16T15:23:06.318Z,4.62
2023-09-16T15:25:35.575Z,4.60
2023-09-16T15:28:03.387Z,4.77
2023-09-16T15:30:32.007Z,4.60
2023-09-16T15:32:59.897Z,4.75
2023-09-16T15:35:30.563Z,4.68
2023-09-16T15:37:59.702Z,4.82
2023-09-16T15:40:27.600Z,4.51
2023-09-16T15:42:56.851Z,4.72
2023-09-16T15:45:24.619Z,4.63
2023-09-16T15:48:00.635Z,4.51
2023-09-16T15:50:30.296Z,4.76
2023-09-16T15:52:58.029Z,4.70
2023-09-16T15:55:25.853Z,4.60
2023-09-16T15:57:53.947Z,4.95
2023-09-16T16:00:23.064Z,4.76
2023-09-16T16:02:52.087Z,4.52
2023-09-16T16:05:20.063Z,4.54
2023-09-16T16:07:48.448Z,4.48
2023-09-16T16:10:20.789Z,4.67
2023-09-16T16:12:48.534Z,4.39
2023-09-16T16:15:16.330Z,4.39
2023-09-16T16:17:45.529Z,4.42
2023-09-16T16:20:13.894Z,4.36
2023-09-16T16:22:41.620Z,4.32
2023-09-16T16:25:09.800Z,4.31
2023-09-16T16:27:37.525Z,4.34
2023-09-16T16:30:06.969Z,4.48
2023-09-16T16:32:35.346Z,4.27
2023-09-16T16:35:04.584Z,4.37
2023-09-16T16:37:32.351Z,4.46
2023-09-16T16:40:00.534Z,4.62
2023-09-16T16:42:28.460Z,4.47
2023-09-16T16:44:56.190Z,4.53
2023-09-16T16:47:24.070Z,4.34
2023-09-16T16:49:52.346Z,4.62
2023-09-16T16:52:21.487Z,4.74
2023-09-16T16:54:49.458Z,4.78
2023-09-16T16:57:17.314Z,4.57
2023-09-16T16:59:45.084Z,4.73
2023-09-16T17:02:12.933Z,4.69
2023-09-16T17:04:40.748Z,4.72
2023-09-16T17:07:08.517Z,4.92
2023-09-16T17:09:37.803Z,4.85
2023-09-16T17:12:05.900Z,4.51
2023-09-16T17:14:33.661Z,4.80
2023-09-16T17:17:01.481Z,4.86
2023-09-16T17:19:29.939Z,4.77
2023-09-16T17:21:57.714Z,5.10
2023-09-16T17:24:25.504Z,5.11
2023-09-16T17:26:56.203Z,5.43
2023-09-16T17:29:24.461Z,5.16
2023-09-16T17:31:52.435Z,5.04
2023-09-16T17:34:24.982Z,5.37
2023-09-16T17:36:54.307Z,5.42
2023-09-16T17:39:22.519Z,5.36
2023-09-16T17:41:50.293Z,5.48
2023-09-16T17:44:19.663Z,5.23
2023-09-16T17:46:47.858Z,5.57
2023-09-16T17:49:22.405Z,5.93
2023-09-16T17:51:50.239Z,5.54
2023-09-16T17:54:24.418Z,5.20
2023-09-16T17:56:52.205Z,5.73
2023-09-16T17:59:21.400Z,6.06
2023-09-16T18:01:49.348Z,5.81
2023-09-16T18:04:17.336Z,5.91
2023-09-16T18:06:47.713Z,6.01
2023-09-16T18:09:15.487Z,6.47
2023-09-16T18:11:43.281Z,6.16
2023-09-16T18:14:11.011Z,5.97
2023-09-16T18:16:40.266Z,6.08
2023-09-16T18:19:08.654Z,6.43
2023-09-16T18:21:36.481Z,6.56
2023-09-16T18:24:06.954Z,6.40
2023-09-16T18:26:35.223Z,6.41
2023-09-16T18:29:03.084Z,6.39
2023-09-16T18:31:30.939Z,6.52
2023-09-16T18:34:00.899Z,6.48
2023-09-16T18:36:29.598Z,6.13
2023-09-16T18:38:58.431Z,6.31
2023-09-16T18:41:26.215Z,6.35
2023-09-16T18:43:54.240Z,6.13
2023-09-16T18:46:22.302Z,6.49
2023-09-16T18:48:50.841Z,6.19
2023-09-16T18:51:20.113Z,6.39
2023-09-16T18:53:51.785Z,6.44
2023-09-16T18:56:21.915Z,6.35
2023-09-16T18:58:52.467Z,6.32
2023-09-16T19:01:23.783Z,6.34
2023-09-16T19:03:51.571Z,6.29
2023-09-16T19:06:20.706Z,6.50
2023-09-16T19:08:48.737Z,6.35
2023-09-16T19:11:17.888Z,6.41
2023-09-16T19:13:45.821Z,6.22
2023-09-16T19:16:14.766Z,5.99
2023-09-16T19:18:42.619Z,6.34
2023-09-16T19:21:10.399Z,5.90
2023-09-16T19:23:41.277Z,5.96
2023-09-16T19:26:09.610Z,5.88
2023-09-16T19:28:37.453Z,6.00
2023-09-16T19:31:05.588Z,5.93
2023-09-16T19:33:33.451Z,5.65
2023-09-16T19:36:02.187Z,5.65
2023-09-16T19:38:31.083Z,5.60
2023-09-16T19:41:00.704Z,5.50
2023-09-16T19:43:28.559Z,5.74
2023-09-16T19:46:00.863Z,5.90
2023-09-16T19:48:28.828Z,5.88
2023-09-16T19:50:56.761Z,5.64
2023-09-16T19:53:24.783Z,5.59
2023-09-16T19:55:52.864Z,5.74
2023-09-16T19:58:24.942Z,5.73
2023-09-16T20:00:56.612Z,5.69
2023-09-16T20:03:24.442Z,5.74
2023-09-16T20:05:52.467Z,5.36
2023-09-16T20:08:22.678Z,5.60
2023-09-16T20:10:50.520Z,5.58
2023-09-16T20:13:18.337Z,5.68
2023-09-16T20:15:47.673Z,5.27
2023-09-16T20:18:15.468Z,5.38
2023-09-16T20:20:43.397Z,5.69
2023-09-16T20:23:11.213Z,5.61
2023-09-16T20:25:40.280Z,5.43
2023-09-16T20:28:08.175Z,5.53
2023-09-16T20:30:36.081Z,5.56
2023-09-16T20:33:06.862Z,5.54
2023-09-16T20:35:34.714Z,5.22
2023-09-16T20:38:02.608Z,5.56
2023-09-16T20:40:30.682Z,5.52
2023-09-16T20:42:59.297Z,5.47
2023-09-16T20:45:27.207Z,5.37
2023-09-16T20:47:55.087Z,5.31
2023-09-16T20:50:24.271Z,5.19
2023-09-16T20:52:52.030Z,5.36
2023-09-16T20:55:19.974Z,5.28
2023-09-16T20:57:47.783Z,5.28
2023-09-16T21:00:16.335Z,5.35
2023-09-16T21:02:44.192Z,5.21
2023-09-16T21:05:11.972Z,5.43
2023-09-16T21:07:41.172Z,5.53
2023-09-16T21:10:09.577Z,5.39
2023-09-16T21:12:37.363Z,5.51
2023-09-16T21:15:05.508Z,5.31
2023-09-16T21:17:33.289Z,5.39
2023-09-16T21:20:01.157Z,5.29
2023-09-16T21:22:28.938Z,5.35
2023-09-16T21:24:58.178Z,5.28
2023-09-16T21:27:25.958Z,5.32
2023-09-16T21:29:53.731Z,5.33
2023-09-16T21:32:21.463Z,5.45
2023-09-16T21:34:49.352Z,5.38
2023-09-16T21:37:17.189Z,5.39
2023-09-16T21:39:45.013Z,5.39
2023-09-16T21:42:16.504Z,5.16
2023-09-16T21:44:46.996Z,5.19
2023-09-16T21:47:14.935Z,5.38
2023-09-16T21:49:45.764Z,5.51
2023-09-16T21:52:13.530Z,5.31
2023-09-16T21:54:44.424Z,5.51
2023-09-16T21:57:13.196Z,5.41
2023-09-16T21:59:42.804Z,5.32
2023-09-16T22:02:13.125Z,5.56
2023-09-16T22:04:41.080Z,5.38
2023-09-16T22:07:08.868Z,5.45
2023-09-16T22:09:36.578Z,5.37
2023-09-16T22:12:04.493Z,5.38
2023-09-16T22:14:32.221Z,5.35
2023-09-16T22:17:01.413Z,5.37
2023-09-16T22:19:29.324Z,4.99
2023-09-16T22:21:57.163Z,5.15
2023-09-16T22:24:24.875Z,5.31
2023-09-16T22:26:52.750Z,5.76
2023-09-16T22:29:20.600Z,5.40
2023-09-16T22:31:48.463Z,5.66
2023-09-16T22:34:17.653Z,5.60
2023-09-16T22:36:45.481Z,5.96
2023-09-16T22:39:15.371Z,5.88
2023-09-16T22:41:44.334Z,5.59
2023-09-16T22:44:12.287Z,5.92
2023-09-16T22:46:40.196Z,5.97
2023-09-16T22:49:10.098Z,6.12
2023-09-16T22:51:39.390Z,5.98
2023-09-16T22:54:07.283Z,5.93
2023-09-16T22:56:36.104Z,6.04
2023-09-16T22:59:03.897Z,6.06
2023-09-16T23:01:31.752Z,5.99
2023-09-16T23:03:59.581Z,5.83
2023-09-16T23:06:27.314Z,5.73
2023-09-16T23:08:56.648Z,6.19
2023-09-16T23:11:24.402Z,6.03
2023-09-16T23:13:52.494Z,5.66
2023-09-16T23:16:20.525Z,5.79
2023-09-16T23:18:48.368Z,5.99
2023-09-16T23:21:18.979Z,5.70
2023-09-16T23:23:46.701Z,5.59
2023-09-16T23:26:16.784Z,5.78
2023-09-16T23:28:47.134Z,5.40
2023-09-16T23:31:24.345Z,5.36
2023-09-16T23:33:52.464Z,5.46
2023-09-16T23:36:23.645Z,5.62
2023-09-16T23:38:51.361Z,5.76
2023-09-16T23:41:21.209Z,5.55
2023-09-16T23:43:49.260Z,5.58
2023-09-16T23:46:22.944Z,5.75
2023-09-16T23:48:50.766Z,5.86
2023-09-16T23:51:18.583Z,6.03
2023-09-16T23:53:46.298Z,5.90
2023-09-16T23:56:14.811Z,6.08
2023-09-16T23:58:43.992Z,6.18
